createdAt,value
2018-09-26T00:01:00.768Z,99.90
2018-09-26T00:03:33.718Z,99.90
2018-09-26T00:06:00.941Z,99.90
2018-09-26T00:08:28.076Z,99.90
2018-09-26T00:10:55.193Z,99.90
2018-09-26T00:13:22.298Z,99.90
2018-09-26T00:15:49.687Z,99.90
2018-09-26T00:18:16.781Z,99.90
2018-09-26T00:20:43.873Z,99.90
2018-09-26T00:23:10.973Z,99.90
2018-09-26T00:25:38.074Z,99.90
2018-09-26T00:28:05.191Z,99.90
2018-09-26T00:30:32.332Z,99.90
2018-09-26T00:32:59.657Z,99.90
2018-09-26T00:35:26.738Z,99.90
2018-09-26T00:37:53.842Z,99.90
2018-09-26T00:40:20.938Z,99.90
2018-09-26T00:42:48.037Z,99.90
2018-09-26T00:45:15.163Z,99.90
2018-09-26T00:47:42.510Z,99.90
2018-09-26T00:50:09.622Z,99.90
2018-09-26T00:52:36.725Z,99.90
2018-09-26T00:55:03.942Z,99.90
2018-09-26T00:57:31.096Z,99.90
2018-09-26T00:59:58.439Z,99.90
2018-09-26T01:02:25.542Z,99.90
2018-09-26T01:04:52.640Z,99.90
2018-09-26T01:07:19.742Z,99.90
2018-09-26T01:09:46.842Z,99.90
2018-09-26T01:12:13.965Z,99.90
2018-09-26T01:14:41.050Z,99.90
2018-09-26T01:17:08.161Z,99.90
2018-09-26T01:19:35.299Z,99.90
2018-09-26T01:22:02.431Z,99.90
2018-09-26T01:24:29.595Z,99.90
2018-09-26T01:26:56.706Z,99.90
2018-09-26T01:29:23.794Z,99.90
2018-09-26T01:31:50.938Z,99.90
2018-09-26T01:34:18.037Z,99.90
2018-09-26T01:36:45.122Z,99.90
2018-09-26T01:39:12.242Z,99.90
2018-09-26T01:41:39.337Z,99.90
2018-09-26T01:44:06.466Z,99.90
2018-09-26T01:46:33.602Z,99.90
2018-09-26T01:49:00.769Z,99.90
2018-09-26T01:51:27.920Z,99.90
2018-09-26T01:53:55.023Z,99.90
2018-09-26T01:56:22.183Z,99.90
2018-09-26T01:58:49.246Z,99.90
2018-09-26T02:01:16.686Z,99.90
2018-09-26T02:03:43.822Z,99.90
2018-09-26T02:06:10.918Z,99.90
2018-09-26T02:08:38.156Z,99.90
2018-09-26T02:11:05.283Z,99.90
2018-09-26T02:13:32.403Z,99.90
2018-09-26T02:15:59.552Z,99.90
2018-09-26T02:18:26.714Z,99.90
2018-09-26T02:20:53.814Z,99.90
2018-09-26T02:23:20.908Z,99.90
2018-09-26T02:25:48.043Z,99.90
2018-09-26T02:28:15.138Z,99.90
2018-09-26T02:30:42.240Z,99.90
2018-09-26T02:33:09.330Z,99.90
2018-09-26T02:35:36.452Z,99.90
2018-09-26T02:38:03.601Z,99.90
2018-09-26T02:40:30.757Z,99.90
2018-09-26T02:42:57.899Z,99.90
2018-09-26T02:45:25.002Z,99.90
2018-09-26T02:47:52.083Z,99.90
2018-09-26T02:50:19.184Z,99.90
2018-09-26T02:52:46.279Z,99.90
2018-09-26T02:55:13.362Z,99.90
2018-09-26T02:57:40.462Z,99.90
2018-09-26T03:00:07.601Z,99.90
2018-09-26T03:02:34.767Z,99.90
2018-09-26T03:05:02.054Z,99.90
2018-09-26T03:07:29.273Z,99.90
2018-09-26T03:09:56.364Z,99.90
2018-09-26T03:12:23.446Z,99.90
2018-09-26T03:14:50.534Z,99.90
2018-09-26T03:17:17.642Z,99.90
2018-09-26T03:19:44.743Z,99.90
2018-09-26T03:22:11.835Z,99.90
2018-09-26T03:24:38.926Z,99.90
2018-09-26T03:27:06.026Z,99.90
2018-09-26T03:29:33.207Z,99.90
2018-09-26T03:32:00.506Z,99.90
2018-09-26T03:34:27.630Z,99.90
2018-09-26T03:36:54.714Z,99.90
2018-09-26T03:39:21.798Z,99.90
2018-09-26T03:41:48.943Z,99.90
2018-09-26T03:44:16.033Z,99.90
2018-09-26T03:46:43.122Z,99.90
2018-09-26T03:49:10.214Z,99.90
2018-09-26T03:51:37.323Z,99.90
2018-09-26T03:54:04.585Z,99.90
2018-09-26T03:56:31.774Z,99.90
2018-09-26T03:58:58.911Z,99.90
2018-09-26T04:01:26.014Z,99.90
2018-09-26T04:03:53.130Z,99.90
2018-09-26T04:06:20.221Z,99.90
2018-09-26T04:08:47.442Z,99.90
2018-09-26T04:11:14.581Z,99.90
2018-09-26T04:13:41.678Z,99.90
2018-09-26T04:16:08.774Z,99.90
2018-09-26T04:18:35.897Z,99.90
2018-09-26T04:21:03.122Z,99.90
2018-09-26T04:23:30.430Z,99.90
2018-09-26T04:25:57.535Z,99.90
2018-09-26T04:28:24.740Z,99.90
2018-09-26T04:30:51.813Z,99.90
2018-09-26T04:33:19.187Z,99.90
2018-09-26T04:35:46.028Z,99.90
2018-09-26T04:38:13.106Z,99.90
2018-09-26T04:40:40.354Z,99.90
2018-09-26T04:43:07.638Z,99.90
2018-09-26T04:45:34.808Z,99.90
2018-09-26T04:48:01.968Z,99.90
2018-09-26T04:50:29.126Z,99.90
2018-09-26T04:52:56.257Z,99.90
2018-09-26T04:55:23.381Z,99.90
2018-09-26T04:57:50.555Z,99.90
2018-09-26T05:00:17.650Z,99.90
2018-09-26T05:02:44.755Z,99.90
2018-09-26T05:05:11.851Z,99.90
2018-09-26T05:07:38.952Z,99.90
2018-09-26T05:10:06.519Z,99.90
2018-09-26T05:12:33.733Z,99.90
2018-09-26T05:15:00.884Z,99.90
2018-09-26T05:17:28.111Z,99.90
2018-09-26T05:19:55.477Z,99.90
2018-09-26T05:22:22.567Z,99.90
2018-09-26T05:24:49.650Z,99.90
2018-09-26T05:27:16.746Z,99.90
2018-09-26T05:29:43.826Z,99.90
2018-09-26T05:32:10.921Z,99.90
2018-09-26T05:34:38.018Z,99.90
2018-09-26T05:37:05.133Z,99.90
2018-09-26T05:39:32.314Z,99.90
2018-09-26T05:41:59.484Z,99.90
2018-09-26T05:44:26.630Z,99.90
2018-09-26T05:46:53.722Z,99.90
2018-09-26T05:49:20.826Z,99.90
2018-09-26T05:51:47.926Z,99.90
2018-09-26T05:54:15.019Z,99.90
2018-09-26T05:56:42.147Z,99.90
2018-09-26T05:59:09.444Z,99.90
2018-09-26T06:01:36.663Z,99.90
2018-09-26T06:04:03.796Z,99.90
2018-09-26T06:06:31.062Z,99.90
2018-09-26T06:08:58.203Z,99.90
2018-09-26T06:11:25.303Z,99.90
2018-09-26T06:13:52.394Z,99.90
2018-09-26T06:16:19.518Z,99.90
2018-09-26T06:18:46.629Z,99.90
2018-09-26T06:21:13.758Z,99.90
2018-09-26T06:23:40.848Z,99.90
2018-09-26T06:26:07.954Z,99.90
2018-09-26T06:28:35.062Z,98.60
2018-09-26T06:31:02.207Z,95.60
2018-09-26T06:33:29.546Z,92.70
2018-09-26T06:35:56.634Z,90.40
2018-09-26T06:38:23.714Z,88.60
2018-09-26T06:40:50.806Z,87.40
2018-09-26T06:43:17.885Z,86.00
2018-09-26T06:45:44.978Z,84.90
2018-09-26T06:48:12.067Z,86.10
2018-09-26T06:50:39.173Z,88.10
2018-09-26T06:53:06.291Z,90.00
2018-09-26T06:55:33.613Z,82.40
2018-09-26T06:58:00.735Z,81.20
2018-09-26T07:00:27.857Z,79.80
2018-09-26T07:02:54.954Z,75.10
2018-09-26T07:05:22.062Z,74.10
2018-09-26T07:07:49.150Z,77.10
2018-09-26T07:10:16.403Z,74.50
2018-09-26T07:12:43.504Z,73.20
2018-09-26T07:15:10.607Z,70.60
2018-09-26T07:17:37.734Z,67.00
2018-09-26T07:20:05.059Z,61.30
2018-09-26T07:22:32.228Z,58.40
2018-09-26T07:24:59.402Z,56.80
2018-09-26T07:27:26.489Z,54.70
2018-09-26T07:29:53.590Z,52.40
2018-09-26T07:32:20.765Z,51.90
2018-09-26T07:34:47.808Z,49.30
2018-09-26T07:37:14.901Z,48.70
2018-09-26T07:39:41.994Z,47.80
2018-09-26T07:42:09.092Z,47.40
2018-09-26T07:44:36.236Z,47.90
2018-09-26T07:47:03.534Z,46.50
2018-09-26T07:49:30.759Z,46.40
2018-09-26T07:51:57.884Z,47.10
2018-09-26T07:54:24.978Z,46.60
2018-09-26T07:56:52.106Z,48.00
2018-09-26T07:59:19.266Z,48.10
2018-09-26T08:01:46.402Z,49.10
2018-09-26T08:04:13.489Z,50.20
2018-09-26T08:06:40.604Z,49.00
2018-09-26T08:09:08.641Z,46.10
2018-09-26T08:11:35.935Z,45.50
2018-09-26T08:14:03.268Z,43.60
2018-09-26T08:16:30.566Z,44.30
2018-09-26T08:18:57.706Z,43.40
2018-09-26T08:21:24.934Z,41.90
2018-09-26T08:23:52.146Z,41.50
2018-09-26T08:26:19.151Z,39.60
2018-09-26T08:28:46.451Z,40.50
2018-09-26T08:31:13.554Z,40.50
2018-09-26T08:33:40.717Z,41.50
2018-09-26T08:36:07.825Z,41.90
2018-09-26T08:38:34.939Z,42.50
2018-09-26T08:41:02.090Z,43.90
2018-09-26T08:43:29.243Z,43.80
2018-09-26T08:45:56.337Z,43.50
2018-09-26T08:48:23.425Z,43.70
2018-09-26T08:50:50.518Z,43.60
2018-09-26T08:53:17.637Z,44.30
2018-09-26T08:55:44.755Z,44.80
2018-09-26T08:58:11.850Z,44.80
2018-09-26T09:00:38.963Z,44.40
2018-09-26T09:03:07.157Z,45.60
2018-09-26T09:05:34.340Z,46.50
2018-09-26T09:08:01.690Z,46.00
2018-09-26T09:10:28.858Z,46.30
2018-09-26T09:12:55.986Z,46.80
2018-09-26T09:15:23.579Z,44.80
2018-09-26T09:17:50.703Z,45.80
2018-09-26T09:20:17.833Z,44.90
2018-09-26T09:22:45.771Z,45.80
2018-09-26T09:25:12.874Z,46.50
2018-09-26T09:27:40.032Z,46.70
2018-09-26T09:30:07.321Z,46.40
2018-09-26T09:32:34.490Z,46.20
2018-09-26T09:35:01.832Z,45.80
2018-09-26T09:37:29.002Z,46.00
2018-09-26T09:39:56.108Z,44.40
2018-09-26T09:42:23.199Z,42.90
2018-09-26T09:44:50.309Z,43.20
2018-09-26T09:47:17.397Z,43.00
2018-09-26T09:49:44.506Z,43.90
2018-09-26T09:52:11.610Z,43.80
2018-09-26T09:54:38.713Z,43.10
2018-09-26T09:57:05.830Z,43.50
2018-09-26T09:59:32.937Z,42.60
2018-09-26T10:02:00.217Z,42.80
2018-09-26T10:04:27.334Z,41.70
2018-09-26T10:06:54.451Z,41.60
2018-09-26T10:09:21.550Z,40.60
2018-09-26T10:11:48.702Z,40.10
2018-09-26T10:14:15.884Z,39.80
2018-09-26T10:16:42.940Z,40.50
2018-09-26T10:19:10.038Z,40.20
2018-09-26T10:21:37.170Z,39.70
2018-09-26T10:24:04.644Z,40.00
2018-09-26T10:26:31.811Z,39.80
2018-09-26T10:28:59.675Z,40.30
2018-09-26T10:31:26.800Z,40.60
2018-09-26T10:33:53.926Z,40.50
2018-09-26T10:36:21.082Z,40.30
2018-09-26T10:38:48.180Z,39.60
2018-09-26T10:41:15.280Z,39.30
2018-09-26T10:43:42.372Z,38.70
2018-09-26T10:46:09.514Z,38.70
2018-09-26T10:48:36.634Z,38.50
2018-09-26T10:51:03.818Z,38.80
2018-09-26T10:53:31.036Z,38.10
2018-09-26T10:55:58.289Z,37.00
2018-09-26T10:58:25.386Z,37.60
2018-09-26T11:00:52.518Z,38.50
2018-09-26T11:03:19.625Z,38.90
2018-09-26T11:05:46.722Z,38.60
2018-09-26T11:08:13.815Z,38.50
2018-09-26T11:10:40.927Z,38.90
2018-09-26T11:13:08.045Z,38.90
2018-09-26T11:15:35.203Z,39.50
2018-09-26T11:18:02.399Z,39.70
2018-09-26T11:20:29.551Z,40.00
2018-09-26T11:22:56.662Z,39.70
2018-09-26T11:25:23.773Z,39.60
2018-09-26T11:27:50.889Z,39.10
2018-09-26T11:30:18.017Z,38.90
2018-09-26T11:32:45.126Z,38.50
2018-09-26T11:35:12.253Z,38.30
2018-09-26T11:37:39.370Z,38.70
2018-09-26T11:40:06.578Z,39.40
2018-09-26T11:42:33.826Z,39.60
2018-09-26T11:45:01.317Z,39.40
2018-09-26T11:47:28.489Z,38.90
2018-09-26T11:49:55.641Z,38.10
2018-09-26T11:52:22.787Z,38.00
2018-09-26T11:54:49.823Z,38.40
2018-09-26T11:57:16.918Z,39.10
2018-09-26T11:59:44.073Z,39.30
2018-09-26T12:02:11.280Z,39.10
2018-09-26T12:04:38.310Z,38.60
2018-09-26T12:07:05.622Z,37.50
2018-09-26T12:09:32.739Z,37.90
2018-09-26T12:11:59.967Z,37.90
2018-09-26T12:14:27.062Z,37.30
2018-09-26T12:16:54.176Z,38.40
2018-09-26T12:19:21.316Z,39.00
2018-09-26T12:21:48.442Z,39.30
2018-09-26T12:24:15.509Z,37.70
2018-09-26T12:26:42.610Z,37.00
2018-09-26T12:29:09.734Z,36.80
2018-09-26T12:31:36.850Z,36.90
2018-09-26T12:34:04.243Z,37.60
2018-09-26T12:36:31.356Z,38.50
2018-09-26T12:38:58.516Z,39.00
2018-09-26T12:41:25.622Z,38.60
2018-09-26T12:43:52.735Z,38.50
2018-09-26T12:46:19.848Z,39.00
2018-09-26T12:48:46.947Z,39.30
2018-09-26T12:51:14.037Z,38.40
2018-09-26T12:53:41.184Z,38.50
2018-09-26T12:56:08.278Z,38.30
2018-09-26T12:58:35.403Z,38.60
2018-09-26T13:01:02.887Z,38.20
2018-09-26T13:03:30.062Z,36.70
2018-09-26T13:05:57.178Z,36.60
2018-09-26T13:08:24.299Z,37.60
2018-09-26T13:10:51.396Z,37.50
2018-09-26T13:13:18.495Z,37.90
2018-09-26T13:15:45.625Z,37.20
2018-09-26T13:18:12.889Z,37.80
2018-09-26T13:20:39.978Z,38.10
2018-09-26T13:23:07.186Z,37.00
2018-09-26T13:25:34.591Z,37.10
2018-09-26T13:28:01.701Z,37.30
2018-09-26T13:30:29.103Z,37.90
2018-09-26T13:32:56.238Z,37.90
2018-09-26T13:35:23.335Z,37.60
2018-09-26T13:37:50.449Z,37.50
2018-09-26T13:40:17.660Z,37.90
2018-09-26T13:42:44.714Z,37.90
2018-09-26T13:45:11.826Z,38.00
2018-09-26T13:47:38.947Z,37.90
2018-09-26T13:50:06.292Z,38.00
2018-09-26T13:52:33.455Z,38.60
2018-09-26T13:55:00.722Z,38.90
2018-09-26T13:57:27.849Z,38.30
2018-09-26T13:59:55.006Z,38.70
2018-09-26T14:02:22.206Z,38.50
2018-09-26T14:04:49.466Z,39.00
2018-09-26T14:07:16.578Z,38.70
2018-09-26T14:09:43.690Z,39.80
2018-09-26T14:12:10.813Z,40.20
2018-09-26T14:14:37.934Z,39.70
2018-09-26T14:17:05.207Z,39.80
2018-09-26T14:19:35.854Z,39.40
2018-09-26T14:22:03.256Z,40.00
2018-09-26T14:24:30.534Z,39.50
2018-09-26T14:26:57.780Z,39.50
2018-09-26T14:29:25.112Z,40.30
2018-09-26T14:31:52.230Z,40.80
2018-09-26T14:34:19.444Z,40.90
2018-09-26T14:36:46.661Z,40.50
2018-09-26T14:39:13.938Z,41.40
2018-09-26T14:41:41.122Z,40.50
2018-09-26T14:44:08.368Z,40.30
2018-09-26T14:46:35.642Z,40.90
2018-09-26T14:49:02.952Z,41.00
2018-09-26T14:51:30.402Z,41.30
2018-09-26T14:53:57.831Z,40.50
2018-09-26T14:56:25.159Z,40.00
2018-09-26T14:58:52.421Z,39.60
2018-09-26T15:01:19.657Z,40.90
2018-09-26T15:03:46.889Z,41.50
2018-09-26T15:06:14.283Z,41.10
2018-09-26T15:08:41.535Z,41.40
2018-09-26T15:11:08.744Z,41.80
2018-09-26T15:13:36.004Z,41.80
2018-09-26T15:16:03.355Z,41.80
2018-09-26T15:18:30.603Z,42.10
2018-09-26T15:20:57.902Z,42.40
2018-09-26T15:23:25.138Z,42.20
2018-09-26T15:25:52.383Z,42.10
2018-09-26T15:28:19.661Z,41.90
2018-09-26T15:30:46.845Z,42.30
2018-09-26T15:33:14.094Z,42.50
2018-09-26T15:35:41.322Z,43.00
2018-09-26T15:38:08.614Z,43.20
2018-09-26T15:40:35.817Z,43.10
2018-09-26T15:43:03.190Z,43.30
2018-09-26T15:45:30.590Z,43.30
2018-09-26T15:47:57.835Z,43.60
2018-09-26T15:50:25.167Z,44.60
2018-09-26T15:52:53.074Z,44.20
2018-09-26T15:55:20.343Z,44.80
2018-09-26T15:57:47.603Z,45.30
2018-09-26T16:00:14.889Z,45.40
2018-09-26T16:02:42.081Z,45.30
2018-09-26T16:05:09.545Z,45.40
2018-09-26T16:07:36.836Z,45.30
2018-09-26T16:10:04.188Z,46.00
2018-09-26T16:12:31.843Z,46.20
2018-09-26T16:14:58.999Z,46.70
2018-09-26T16:17:26.104Z,47.00
2018-09-26T16:19:53.205Z,47.00
2018-09-26T16:22:20.380Z,47.00
2018-09-26T16:24:47.398Z,47.20
2018-09-26T16:27:14.493Z,47.90
2018-09-26T16:29:41.613Z,48.00
2018-09-26T16:32:08.770Z,48.20
2018-09-26T16:34:35.897Z,47.70
2018-09-26T16:37:03.045Z,47.90
2018-09-26T16:39:31.355Z,48.50
2018-09-26T16:41:58.443Z,48.30
2018-09-26T16:44:25.613Z,48.30
2018-09-26T16:46:52.651Z,48.60
2018-09-26T16:49:19.778Z,48.90
2018-09-26T16:51:46.870Z,49.30
2018-09-26T16:54:14.011Z,50.30
2018-09-26T16:56:41.048Z,50.50
2018-09-26T16:59:08.246Z,50.20
2018-09-26T17:01:35.408Z,51.30
2018-09-26T17:04:02.523Z,51.50
2018-09-26T17:06:29.967Z,52.00
2018-09-26T17:08:57.150Z,52.60
2018-09-26T17:11:24.274Z,53.50
2018-09-26T17:13:51.378Z,54.80
2018-09-26T17:16:18.542Z,54.70
2018-09-26T17:18:45.590Z,56.20
2018-09-26T17:21:12.683Z,57.00
2018-09-26T17:23:39.808Z,58.20
2018-09-26T17:26:06.935Z,59.60
2018-09-26T17:28:34.135Z,61.60
2018-09-26T17:31:01.271Z,62.60
2018-09-26T17:33:28.459Z,63.90
2018-09-26T17:35:55.558Z,65.20
2018-09-26T17:38:22.663Z,66.90
2018-09-26T17:40:49.795Z,68.40
2018-09-26T17:43:16.925Z,69.50
2018-09-26T17:45:43.986Z,70.60
2018-09-26T17:48:11.154Z,71.90
2018-09-26T17:50:38.210Z,73.40
2018-09-26T17:53:05.577Z,75.60
2018-09-26T17:55:32.749Z,76.70
2018-09-26T17:57:59.972Z,76.30
2018-09-26T18:00:27.099Z,75.30
2018-09-26T18:02:54.234Z,75.30
2018-09-26T18:05:21.326Z,76.90
2018-09-26T18:07:48.435Z,78.30
2018-09-26T18:10:15.610Z,79.60
2018-09-26T18:12:42.718Z,80.90
2018-09-26T18:15:09.840Z,83.00
2018-09-26T18:17:36.974Z,85.20
2018-09-26T18:20:04.177Z,86.90
2018-09-26T18:22:31.346Z,88.10
2018-09-26T18:24:58.546Z,90.00
2018-09-26T18:27:25.675Z,91.10
2018-09-26T18:29:52.752Z,92.00
2018-09-26T18:32:19.867Z,92.60
2018-09-26T18:34:46.991Z,92.60
2018-09-26T18:37:14.182Z,92.70
2018-09-26T18:39:41.290Z,93.60
2018-09-26T18:42:08.416Z,94.40
2018-09-26T18:44:35.575Z,94.80
2018-09-26T18:47:02.737Z,95.00
2018-09-26T18:49:29.968Z,95.50
2018-09-26T18:51:57.074Z,96.80
2018-09-26T18:54:24.171Z,97.90
2018-09-26T18:56:51.323Z,99.00
2018-09-26T18:59:18.644Z,99.10
2018-09-26T19:01:45.698Z,98.60
2018-09-26T19:04:12.835Z,99.10
2018-09-26T19:06:40.117Z,99.30
2018-09-26T19:09:08.594Z,99.90
2018-09-26T19:11:36.043Z,99.90
2018-09-26T19:14:03.234Z,99.90
2018-09-26T19:16:30.601Z,99.90
2018-09-26T19:18:58.067Z,99.90
2018-09-26T19:21:25.240Z,99.90
2018-09-26T19:23:59.294Z,99.90
2018-09-26T19:26:26.462Z,99.40
2018-09-26T19:28:53.622Z,99.30
2018-09-26T19:31:20.744Z,99.10
2018-09-26T19:33:47.854Z,98.50
2018-09-26T19:36:15.021Z,98.00
2018-09-26T19:38:42.110Z,98.60
2018-09-26T19:41:09.232Z,99.20
2018-09-26T19:43:36.336Z,99.20
2018-09-26T19:46:04.555Z,98.30
2018-09-26T19:48:32.380Z,98.30
2018-09-26T19:50:59.893Z,98.50
2018-09-26T19:53:27.777Z,99.30
2018-09-26T19:55:55.017Z,99.90
2018-09-26T19:58:22.165Z,99.90
2018-09-26T20:00:49.262Z,99.90
2018-09-26T20:03:16.383Z,99.90
2018-09-26T20:05:43.654Z,99.90
2018-09-26T20:08:10.817Z,99.90
2018-09-26T20:10:37.866Z,99.90
2018-09-26T20:13:04.996Z,99.90
2018-09-26T20:15:32.089Z,99.90
2018-09-26T20:17:59.603Z,99.90
2018-09-26T20:20:26.698Z,99.90
2018-09-26T20:22:53.898Z,99.90
2018-09-26T20:25:20.971Z,99.90
2018-09-26T20:27:48.078Z,99.90
2018-09-26T20:30:15.179Z,99.90
2018-09-26T20:32:42.286Z,99.90
2018-09-26T20:35:09.467Z,99.90
2018-09-26T20:37:36.542Z,99.90
2018-09-26T20:40:03.902Z,99.90
2018-09-26T20:42:31.147Z,99.90
2018-09-26T20:44:58.309Z,99.90
2018-09-26T20:47:25.431Z,99.90
2018-09-26T20:49:52.558Z,99.90
2018-09-26T20:52:19.694Z,99.90
2018-09-26T20:54:46.839Z,99.90
2018-09-26T20:57:13.926Z,99.90
2018-09-26T20:59:41.056Z,99.90
2018-09-26T21:02:08.231Z,99.90
2018-09-26T21:04:35.340Z,99.90
2018-09-26T21:07:02.524Z,99.90
2018-09-26T21:09:29.629Z,99.90
2018-09-26T21:11:56.839Z,99.90
2018-09-26T21:14:23.915Z,99.90
2018-09-26T21:16:51.090Z,99.90
2018-09-26T21:19:18.197Z,99.90
2018-09-26T21:21:45.311Z,99.90
2018-09-26T21:24:12.414Z,99.90
2018-09-26T21:26:39.512Z,99.90
2018-09-26T21:29:06.633Z,99.90
2018-09-26T21:31:33.752Z,99.90
2018-09-26T21:34:00.898Z,99.90
2018-09-26T21:36:28.026Z,99.90
2018-09-26T21:38:55.205Z,99.90
2018-09-26T21:41:22.540Z,99.90
2018-09-26T21:43:49.659Z,99.90
2018-09-26T21:46:16.772Z,99.90
2018-09-26T21:48:43.902Z,99.90
2018-09-26T21:51:11.015Z,99.90
2018-09-26T21:53:38.126Z,99.90
2018-09-26T21:56:05.282Z,99.90
2018-09-26T21:58:32.399Z,99.90
2018-09-26T22:01:04.572Z,99.90
2018-09-26T22:03:32.427Z,99.90
2018-09-26T22:05:59.670Z,99.90
2018-09-26T22:08:26.838Z,99.90
2018-09-26T22:10:54.031Z,99.90
2018-09-26T22:13:21.799Z,99.90
2018-09-26T22:15:48.921Z,99.90
2018-09-26T22:18:16.026Z,99.90
2018-09-26T22:20:43.130Z,99.90
2018-09-26T22:23:10.245Z,99.90
2018-09-26T22:25:37.375Z,99.90
2018-09-26T22:28:04.564Z,99.90
2018-09-26T22:30:31.735Z,99.90
2018-09-26T22:32:59.394Z,99.90
2018-09-26T22:35:26.558Z,99.90
2018-09-26T22:37:53.738Z,99.90
2018-09-26T22:40:20.841Z,99.90
2018-09-26T22:42:47.994Z,99.90
2018-09-26T22:45:15.126Z,99.90
2018-09-26T22:47:42.251Z,99.90
2018-09-26T22:50:09.388Z,99.90
2018-09-26T22:52:36.503Z,99.90
2018-09-26T22:55:03.833Z,99.90
2018-09-26T22:57:30.933Z,99.90
2018-09-26T22:59:58.082Z,99.90
2018-09-26T23:02:25.215Z,99.90
2018-09-26T23:04:52.333Z,99.90
2018-09-26T23:07:19.451Z,99.90
2018-09-26T23:09:46.566Z,99.90
2018-09-26T23:12:13.674Z,99.90
2018-09-26T23:14:40.771Z,99.90
2018-09-26T23:17:07.885Z,99.90
2018-09-26T23:19:34.990Z,99.90
2018-09-26T23:22:02.110Z,99.90
2018-09-26T23:24:29.253Z,99.90
2018-09-26T23:26:56.454Z,99.90
2018-09-26T23:29:23.656Z,99.90
2018-09-26T23:31:50.762Z,99.90
2018-09-26T23:34:17.854Z,99.90
2018-09-26T23:36:44.954Z,99.90
2018-09-26T23:39:12.095Z,99.90
2018-09-26T23:41:39.570Z,99.90
2018-09-26T23:44:07.140Z,99.90
2018-09-26T23:46:34.402Z,99.90
2018-09-26T23:49:01.639Z,99.90
2018-09-26T23:51:28.949Z,99.90
2018-09-26T23:53:56.491Z,99.90
2018-09-26T23:56:23.657Z,99.90
2018-09-26T23:58:50.771Z,99.90
